sensor_id;sensor_type;location;lat;lon;timestamp;temperature;humidity
55004;DHT22;40900;52.710;6.438;2023-09-19T00:00:39;14.60;99.90
55004;DHT22;40900;52.710;6.438;2023-09-19T00:03:07;14.50;99.90
55004;DHT22;40900;52.710;6.438;2023-09-19T00:05:35;14.50;99.90
55004;DHT22;40900;52.710;6.438;2023-09-19T00:08:01;14.50;99.90
55004;DHT22;40900;52.710;6.438;2023-09-19T00:10:31;14.40;99.90
55004;DHT22;40900;52.710;6.438;2023-09-19T00:12:58;14.40;99.90
55004;DHT22;40900;52.710;6.438;2023-09-19T00:15:36;14.30;99.90
55004;DHT22;40900;52.710;6.438;2023-09-19T00:18:03;14.40;99.90
55004;DHT22;40900;52.710;6.438;2023-09-19T00:20:30;14.30;99.90
55004;DHT22;40900;52.710;6.438;2023-09-19T00:22:55;14.30;99.90
55004;DHT22;40900;52.710;6.438;2023-09-19T00:25:21;14.30;99.90
55004;DHT22;40900;52.710;6.438;2023-09-19T00:27:47;14.30;99.90
55004;DHT22;40900;52.710;6.438;2023-09-19T00:30:15;14.30;99.90
55004;DHT22;40900;52.710;6.438;2023-09-19T00:32:46;14.30;99.90
55004;DHT22;40900;52.710;6.438;2023-09-19T00:35:15;14.30;99.90
55004;DHT22;40900;52.710;6.438;2023-09-19T00:37:41;14.30;99.90
55004;DHT22;40900;52.710;6.438;2023-09-19T00:40:07;14.30;99.90
55004;DHT22;40900;52.710;6.438;2023-09-19T00:42:44;14.20;99.90
55004;DHT22;40900;52.710;6.438;2023-09-19T00:45:11;14.20;99.90
55004;DHT22;40900;52.710;6.438;2023-09-19T00:47:50;14.20;99.90
55004;DHT22;40900;52.710;6.438;2023-09-19T00:50:22;14.20;99.90
55004;DHT22;40900;52.710;6.438;2023-09-19T00:52:50;14.20;99.90
55004;DHT22;40900;52.710;6.438;2023-09-19T00:55:17;14.20;99.90
55004;DHT22;40900;52.710;6.438;2023-09-19T00:57:45;14.10;99.90
55004;DHT22;40900;52.710;6.438;2023-09-19T01:00:12;14.20;99.90
55004;DHT22;40900;52.710;6.438;2023-09-19T01:02:41;14.10;99.90
55004;DHT22;40900;52.710;6.438;2023-09-19T01:05:09;14.10;99.90
55004;DHT22;40900;52.710;6.438;2023-09-19T01:07:36;14.20;99.90
55004;DHT22;40900;52.710;6.438;2023-09-19T01:10:11;14.10;99.90
55004;DHT22;40900;52.710;6.438;2023-09-19T01:29:42;14.00;99.90
55004;DHT22;40900;52.710;6.438;2023-09-19T01:32:11;14.00;99.90
55004;DHT22;40900;52.710;6.438;2023-09-19T01:34:50;14.00;99.90
55004;DHT22;40900;52.710;6.438;2023-09-19T01:37:19;14.00;99.90
55004;DHT22;40900;52.710;6.438;2023-09-19T01:39:51;14.00;99.90
55004;DHT22;40900;52.710;6.438;2023-09-19T01:42:31;13.90;99.90
55004;DHT22;40900;52.710;6.438;2023-09-19T01:45:29;14.00;99.90
55004;DHT22;40900;52.710;6.438;2023-09-19T01:48:24;13.90;99.90
55004;DHT22;40900;52.710;6.438;2023-09-19T01:51:02;13.90;99.90
55004;DHT22;40900;52.710;6.438;2023-09-19T01:53:40;13.90;99.90
55004;DHT22;40900;52.710;6.438;2023-09-19T01:56:14;13.90;99.90
55004;DHT22;40900;52.710;6.438;2023-09-19T01:58:50;13.90;99.90
55004;DHT22;40900;52.710;6.438;2023-09-19T02:01:20;13.80;99.90
55004;DHT22;40900;52.710;6.438;2023-09-19T02:03:50;13.80;99.90
55004;DHT22;40900;52.710;6.438;2023-09-19T02:06:17;13.80;99.90
55004;DHT22;40900;52.710;6.438;2023-09-19T02:08:44;13.80;99.90
55004;DHT22;40900;52.710;6.438;2023-09-19T02:11:14;13.80;99.90
55004;DHT22;40900;52.710;6.438;2023-09-19T02:13:40;13.80;99.90
55004;DHT22;40900;52.710;6.438;2023-09-19T02:16:07;13.70;99.90
55004;DHT22;40900;52.710;6.438;2023-09-19T02:18:34;13.70;99.90
55004;DHT22;40900;52.710;6.438;2023-09-19T02:21:01;13.70;99.90
55004;DHT22;40900;52.710;6.438;2023-09-19T02:23:27;13.70;99.90
55004;DHT22;40900;52.710;6.438;2023-09-19T02:25:56;13.70;99.90
55004;DHT22;40900;52.710;6.438;2023-09-19T02:28:29;13.70;99.90
55004;DHT22;40900;52.710;6.438;2023-09-19T02:30:58;13.70;99.90
55004;DHT22;40900;52.710;6.438;2023-09-19T02:33:24;13.70;99.90
55004;DHT22;40900;52.710;6.438;2023-09-19T02:35:54;13.70;99.90
55004;DHT22;40900;52.710;6.438;2023-09-19T02:38:19;13.70;99.90
55004;DHT22;40900;52.710;6.438;2023-09-19T02:40:50;13.70;99.90
55004;DHT22;40900;52.710;6.438;2023-09-19T02:43:16;13.70;99.90
55004;DHT22;40900;52.710;6.438;2023-09-19T02:45:42;13.70;99.90
55004;DHT22;40900;52.710;6.438;2023-09-19T02:48:08;13.60;99.90
55004;DHT22;40900;52.710;6.438;2023-09-19T02:50:34;13.60;99.90
55004;DHT22;40900;52.710;6.438;2023-09-19T02:53:00;13.70;99.90
55004;DHT22;40900;52.710;6.438;2023-09-19T02:55:26;13.70;99.90
55004;DHT22;40900;52.710;6.438;2023-09-19T02:57:53;13.60;99.90
55004;DHT22;40900;52.710;6.438;2023-09-19T03:00:21;13.70;99.90
55004;DHT22;40900;52.710;6.438;2023-09-19T03:02:54;13.70;99.90
55004;DHT22;40900;52.710;6.438;2023-09-19T03:05:20;13.70;99.90
55004;DHT22;40900;52.710;6.438;2023-09-19T03:07:47;13.60;99.90
55004;DHT22;40900;52.710;6.438;2023-09-19T03:10:19;13.70;99.90
55004;DHT22;40900;52.710;6.438;2023-09-19T03:12:46;13.70;99.90
55004;DHT22;40900;52.710;6.438;2023-09-19T03:15:13;13.70;99.90
55004;DHT22;40900;52.710;6.438;2023-09-19T03:17:48;13.70;99.90
55004;DHT22;40900;52.710;6.438;2023-09-19T03:20:15;13.70;99.90
55004;DHT22;40900;52.710;6.438;2023-09-19T03:22:43;13.80;99.90
55004;DHT22;40900;52.710;6.438;2023-09-19T03:25:09;13.70;99.90
55004;DHT22;40900;52.710;6.438;2023-09-19T03:27:40;13.80;99.90
55004;DHT22;40900;52.710;6.438;2023-09-19T03:30:07;13.80;99.90
55004;DHT22;40900;52.710;6.438;2023-09-19T03:32:40;13.90;99.90
55004;DHT22;40900;52.710;6.438;2023-09-19T03:35:08;13.90;99.90
55004;DHT22;40900;52.710;6.438;2023-09-19T03:37:36;13.90;99.90
55004;DHT22;40900;52.710;6.438;2023-09-19T03:40:02;13.90;99.90
55004;DHT22;40900;52.710;6.438;2023-09-19T03:42:31;13.90;99.90
55004;DHT22;40900;52.710;6.438;2023-09-19T03:44:57;13.90;99.90
55004;DHT22;40900;52.710;6.438;2023-09-19T03:47:22;14.00;99.90
55004;DHT22;40900;52.710;6.438;2023-09-19T03:49:48;14.00;99.90
55004;DHT22;40900;52.710;6.438;2023-09-19T03:52:14;14.00;99.90
55004;DHT22;40900;52.710;6.438;2023-09-19T03:54:43;14.00;99.90
55004;DHT22;40900;52.710;6.438;2023-09-19T03:57:08;14.10;99.90
55004;DHT22;40900;52.710;6.438;2023-09-19T03:59:35;14.10;99.90
55004;DHT22;40900;52.710;6.438;2023-09-19T04:02:01;14.10;99.90
55004;DHT22;40900;52.710;6.438;2023-09-19T04:04:27;14.00;99.90
55004;DHT22;40900;52.710;6.438;2023-09-19T04:06:54;14.00;99.90
55004;DHT22;40900;52.710;6.438;2023-09-19T04:09:20;14.10;99.90
55004;DHT22;40900;52.710;6.438;2023-09-19T04:11:46;14.00;99.90
55004;DHT22;40900;52.710;6.438;2023-09-19T04:14:12;14.00;99.90
55004;DHT22;40900;52.710;6.438;2023-09-19T04:16:37;14.00;99.90
55004;DHT22;40900;52.710;6.438;2023-09-19T04:19:04;14.00;99.90
55004;DHT22;40900;52.710;6.438;2023-09-19T04:21:31;14.00;99.90
55004;DHT22;40900;52.710;6.438;2023-09-19T04:23:57;13.90;99.90
55004;DHT22;40900;52.710;6.438;2023-09-19T04:26:23;13.90;99.90
55004;DHT22;40900;52.710;6.438;2023-09-19T04:28:48;13.90;99.90
55004;DHT22;40900;52.710;6.438;2023-09-19T04:31:14;13.90;99.90
55004;DHT22;40900;52.710;6.438;2023-09-19T04:33:40;13.90;99.90
55004;DHT22;40900;52.710;6.438;2023-09-19T04:36:09;13.90;99.90
55004;DHT22;40900;52.710;6.438;2023-09-19T04:38:35;13.80;99.90
55004;DHT22;40900;52.710;6.438;2023-09-19T04:41:01;13.80;99.90
55004;DHT22;40900;52.710;6.438;2023-09-19T04:43:26;13.70;99.90
55004;DHT22;40900;52.710;6.438;2023-09-19T04:45:54;13.70;99.90
55004;DHT22;40900;52.710;6.438;2023-09-19T04:48:22;13.70;99.90
55004;DHT22;40900;52.710;6.438;2023-09-19T04:50:50;13.70;99.90
55004;DHT22;40900;52.710;6.438;2023-09-19T04:53:17;13.70;99.90
55004;DHT22;40900;52.710;6.438;2023-09-19T04:55:44;13.60;99.90
55004;DHT22;40900;52.710;6.438;2023-09-19T04:58:10;13.60;99.90
55004;DHT22;40900;52.710;6.438;2023-09-19T05:00:36;13.60;99.90
55004;DHT22;40900;52.710;6.438;2023-09-19T05:03:02;13.60;99.90
55004;DHT22;40900;52.710;6.438;2023-09-19T05:05:29;13.60;99.90
55004;DHT22;40900;52.710;6.438;2023-09-19T05:07:55;13.60;99.90
55004;DHT22;40900;52.710;6.438;2023-09-19T05:10:21;13.50;99.90
55004;DHT22;40900;52.710;6.438;2023-09-19T05:12:47;13.50;99.90
55004;DHT22;40900;52.710;6.438;2023-09-19T05:15:14;13.40;99.90
55004;DHT22;40900;52.710;6.438;2023-09-19T05:17:40;13.40;99.90
55004;DHT22;40900;52.710;6.438;2023-09-19T05:20:07;13.40;99.90
55004;DHT22;40900;52.710;6.438;2023-09-19T05:22:43;13.30;99.90
55004;DHT22;40900;52.710;6.438;2023-09-19T05:25:10;13.30;99.90
55004;DHT22;40900;52.710;6.438;2023-09-19T05:27:36;13.30;99.90
55004;DHT22;40900;52.710;6.438;2023-09-19T05:30:02;13.30;99.90
55004;DHT22;40900;52.710;6.438;2023-09-19T05:32:28;13.30;99.90
55004;DHT22;40900;52.710;6.438;2023-09-19T05:34:54;13.20;99.90
55004;DHT22;40900;52.710;6.438;2023-09-19T05:37:22;13.20;99.90
55004;DHT22;40900;52.710;6.438;2023-09-19T05:39:49;13.20;99.90
55004;DHT22;40900;52.710;6.438;2023-09-19T05:42:14;13.20;99.90
55004;DHT22;40900;52.710;6.438;2023-09-19T05:44:40;13.20;99.90
55004;DHT22;40900;52.710;6.438;2023-09-19T05:47:06;13.20;99.90
55004;DHT22;40900;52.710;6.438;2023-09-19T05:49:35;13.20;99.90
55004;DHT22;40900;52.710;6.438;2023-09-19T05:52:07;13.20;99.90
55004;DHT22;40900;52.710;6.438;2023-09-19T05:54:33;13.20;99.90
55004;DHT22;40900;52.710;6.438;2023-09-19T05:57:02;13.30;99.90
55004;DHT22;40900;52.710;6.438;2023-09-19T05:59:28;13.30;99.90
55004;DHT22;40900;52.710;6.438;2023-09-19T06:01:54;13.40;99.90
55004;DHT22;40900;52.710;6.438;2023-09-19T06:04:20;13.40;99.90
55004;DHT22;40900;52.710;6.438;2023-09-19T06:06:47;13.50;99.90
55004;DHT22;40900;52.710;6.438;2023-09-19T06:09:14;13.50;99.90
55004;DHT22;40900;52.710;6.438;2023-09-19T06:11:42;13.50;99.90
55004;DHT22;40900;52.710;6.438;2023-09-19T06:14:07;13.50;99.90
55004;DHT22;40900;52.710;6.438;2023-09-19T06:16:36;13.60;99.90
55004;DHT22;40900;52.710;6.438;2023-09-19T06:19:03;13.60;99.90
55004;DHT22;40900;52.710;6.438;2023-09-19T06:21:32;13.70;99.90
55004;DHT22;40900;52.710;6.438;2023-09-19T06:23:58;13.80;99.90
55004;DHT22;40900;52.710;6.438;2023-09-19T06:26:24;13.80;99.90
55004;DHT22;40900;52.710;6.438;2023-09-19T06:28:52;13.80;99.90
55004;DHT22;40900;52.710;6.438;2023-09-19T06:31:18;13.70;99.90
55004;DHT22;40900;52.710;6.438;2023-09-19T06:33:44;13.80;99.90
55004;DHT22;40900;52.710;6.438;2023-09-19T06:36:09;13.70;99.90
55004;DHT22;40900;52.710;6.438;2023-09-19T06:38:37;13.70;99.90
55004;DHT22;40900;52.710;6.438;2023-09-19T06:41:05;13.70;99.90
55004;DHT22;40900;52.710;6.438;2023-09-19T06:43:31;13.60;99.90
55004;DHT22;40900;52.710;6.438;2023-09-19T06:46:00;13.60;99.90
55004;DHT22;40900;52.710;6.438;2023-09-19T06:48:26;13.70;99.90
55004;DHT22;40900;52.710;6.438;2023-09-19T06:50:58;13.70;99.90
55004;DHT22;40900;52.710;6.438;2023-09-19T06:53:32;13.80;99.90
55004;DHT22;40900;52.710;6.438;2023-09-19T06:56:00;13.90;99.90
55004;DHT22;40900;52.710;6.438;2023-09-19T06:58:26;14.00;99.90
55004;DHT22;40900;52.710;6.438;2023-09-19T07:00:51;14.00;99.90
55004;DHT22;40900;52.710;6.438;2023-09-19T07:03:17;14.00;99.90
55004;DHT22;40900;52.710;6.438;2023-09-19T07:05:47;14.00;99.90
55004;DHT22;40900;52.710;6.438;2023-09-19T07:08:13;14.10;99.90
55004;DHT22;40900;52.710;6.438;2023-09-19T07:10:40;14.20;99.90
55004;DHT22;40900;52.710;6.438;2023-09-19T07:13:07;14.60;99.90
55004;DHT22;40900;52.710;6.438;2023-09-19T07:15:36;14.70;99.90
55004;DHT22;40900;52.710;6.438;2023-09-19T07:18:05;14.70;99.90
55004;DHT22;40900;52.710;6.438;2023-09-19T07:20:31;14.70;99.90
55004;DHT22;40900;52.710;6.438;2023-09-19T07:23:01;14.60;99.90
55004;DHT22;40900;52.710;6.438;2023-09-19T07:25:30;14.70;99.90
55004;DHT22;40900;52.710;6.438;2023-09-19T07:27:57;15.00;99.90
55004;DHT22;40900;52.710;6.438;2023-09-19T07:30:26;15.10;99.90
55004;DHT22;40900;52.710;6.438;2023-09-19T07:32:52;15.30;99.90
55004;DHT22;40900;52.710;6.438;2023-09-19T07:35:18;15.70;99.90
55004;DHT22;40900;52.710;6.438;2023-09-19T07:37:46;16.00;99.90
55004;DHT22;40900;52.710;6.438;2023-09-19T07:40:18;16.00;99.90
55004;DHT22;40900;52.710;6.438;2023-09-19T07:42:44;16.10;99.90
55004;DHT22;40900;52.710;6.438;2023-09-19T07:45:12;16.30;99.90
55004;DHT22;40900;52.710;6.438;2023-09-19T07:47:46;16.70;99.90
55004;DHT22;40900;52.710;6.438;2023-09-19T07:50:13;16.70;99.90
55004;DHT22;40900;52.710;6.438;2023-09-19T07:52:39;16.80;99.90
55004;DHT22;40900;52.710;6.438;2023-09-19T07:55:08;16.70;99.90
55004;DHT22;40900;52.710;6.438;2023-09-19T07:57:38;16.90;99.90
55004;DHT22;40900;52.710;6.438;2023-09-19T08:00:04;16.90;99.90
55004;DHT22;40900;52.710;6.438;2023-09-19T08:02:35;16.90;99.90
55004;DHT22;40900;52.710;6.438;2023-09-19T08:05:04;16.80;99.90
55004;DHT22;40900;52.710;6.438;2023-09-19T08:07:39;16.70;99.90
55004;DHT22;40900;52.710;6.438;2023-09-19T08:10:07;17.00;99.90
55004;DHT22;40900;52.710;6.438;2023-09-19T08:12:36;16.90;99.90
55004;DHT22;40900;52.710;6.438;2023-09-19T08:15:03;17.00;99.90
55004;DHT22;40900;52.710;6.438;2023-09-19T08:17:34;16.90;99.90
55004;DHT22;40900;52.710;6.438;2023-09-19T08:20:00;16.80;99.90
55004;DHT22;40900;52.710;6.438;2023-09-19T08:22:26;16.60;99.90
55004;DHT22;40900;52.710;6.438;2023-09-19T08:24:52;16.60;99.90
55004;DHT22;40900;52.710;6.438;2023-09-19T08:27:18;16.60;99.90
55004;DHT22;40900;52.710;6.438;2023-09-19T08:29:45;16.20;99.90
55004;DHT22;40900;52.710;6.438;2023-09-19T08:32:12;16.10;99.90
55004;DHT22;40900;52.710;6.438;2023-09-19T08:34:37;16.40;99.90
55004;DHT22;40900;52.710;6.438;2023-09-19T08:37:04;16.70;99.90
55004;DHT22;40900;52.710;6.438;2023-09-19T08:39:30;17.10;99.90
55004;DHT22;40900;52.710;6.438;2023-09-19T08:41:59;17.60;99.90
55004;DHT22;40900;52.710;6.438;2023-09-19T08:44:26;17.70;99.90
55004;DHT22;40900;52.710;6.438;2023-09-19T08:47:08;17.80;99.90
55004;DHT22;40900;52.710;6.438;2023-09-19T08:50:02;18.10;99.90
55004;DHT22;40900;52.710;6.438;2023-09-19T08:52:42;18.30;99.90
55004;DHT22;40900;52.710;6.438;2023-09-19T08:55:14;18.40;99.90
55004;DHT22;40900;52.710;6.438;2023-09-19T08:57:49;18.70;99.90
55004;DHT22;40900;52.710;6.438;2023-09-19T09:00:16;19.00;99.90
55004;DHT22;40900;52.710;6.438;2023-09-19T09:02:47;19.40;99.90
55004;DHT22;40900;52.710;6.438;2023-09-19T09:05:15;19.50;99.90
55004;DHT22;40900;52.710;6.438;2023-09-19T09:07:42;19.80;99.90
55004;DHT22;40900;52.710;6.438;2023-09-19T09:10:09;19.80;99.90
55004;DHT22;40900;52.710;6.438;2023-09-19T09:12:35;20.30;99.90
55004;DHT22;40900;52.710;6.438;2023-09-19T09:15:06;20.50;99.90
55004;DHT22;40900;52.710;6.438;2023-09-19T09:17:34;20.40;99.90
55004;DHT22;40900;52.710;6.438;2023-09-19T09:20:00;20.70;99.90
55004;DHT22;40900;52.710;6.438;2023-09-19T09:22:26;20.30;99.90
55004;DHT22;40900;52.710;6.438;2023-09-19T09:24:58;20.50;99.90
55004;DHT22;40900;52.710;6.438;2023-09-19T09:27:26;20.40;99.90
55004;DHT22;40900;52.710;6.438;2023-09-19T09:29:53;19.90;99.90
55004;DHT22;40900;52.710;6.438;2023-09-19T09:32:24;20.60;99.90
55004;DHT22;40900;52.710;6.438;2023-09-19T09:34:55;20.30;99.90
55004;DHT22;40900;52.710;6.438;2023-09-19T09:37:22;20.00;99.90
55004;DHT22;40900;52.710;6.438;2023-09-19T09:42:37;20.30;99.90
55004;DHT22;40900;52.710;6.438;2023-09-19T09:45:19;20.40;99.90
55004;DHT22;40900;52.710;6.438;2023-09-19T09:48:03;19.90;99.90
55004;DHT22;40900;52.710;6.438;2023-09-19T09:50:36;19.90;99.90
55004;DHT22;40900;52.710;6.438;2023-09-19T09:53:23;19.70;99.90
55004;DHT22;40900;52.710;6.438;2023-09-19T09:56:08;19.40;99.90
55004;DHT22;40900;52.710;6.438;2023-09-19T10:01:14;19.30;99.90
55004;DHT22;40900;52.710;6.438;2023-09-19T10:03:43;19.50;99.90
55004;DHT22;40900;52.710;6.438;2023-09-19T10:06:15;19.40;99.90
55004;DHT22;40900;52.710;6.438;2023-09-19T10:09:07;19.30;99.90
55004;DHT22;40900;52.710;6.438;2023-09-19T10:11:39;19.60;99.90
55004;DHT22;40900;52.710;6.438;2023-09-19T10:14:06;19.50;99.90
55004;DHT22;40900;52.710;6.438;2023-09-19T10:16:40;19.60;99.90
55004;DHT22;40900;52.710;6.438;2023-09-19T10:19:07;20.20;99.90
55004;DHT22;40900;52.710;6.438;2023-09-19T10:21:36;20.60;99.90
55004;DHT22;40900;52.710;6.438;2023-09-19T10:24:05;20.50;99.90
55004;DHT22;40900;52.710;6.438;2023-09-19T10:26:35;20.30;99.90
55004;DHT22;40900;52.710;6.438;2023-09-19T10:29:02;19.80;99.90
55004;DHT22;40900;52.710;6.438;2023-09-19T10:31:33;20.30;99.90
55004;DHT22;40900;52.710;6.438;2023-09-19T10:34:03;19.30;99.90
55004;DHT22;40900;52.710;6.438;2023-09-19T10:36:33;19.10;99.90
55004;DHT22;40900;52.710;6.438;2023-09-19T10:39:02;18.90;99.90
55004;DHT22;40900;52.710;6.438;2023-09-19T10:41:32;18.70;99.90
55004;DHT22;40900;52.710;6.438;2023-09-19T10:44:03;19.00;99.90
55004;DHT22;40900;52.710;6.438;2023-09-19T10:46:32;19.50;99.90
55004;DHT22;40900;52.710;6.438;2023-09-19T10:49:00;19.50;99.90
55004;DHT22;40900;52.710;6.438;2023-09-19T10:51:30;19.40;99.90
55004;DHT22;40900;52.710;6.438;2023-09-19T10:54:23;18.90;99.90
55004;DHT22;40900;52.710;6.438;2023-09-19T10:56:53;18.60;99.90
55004;DHT22;40900;52.710;6.438;2023-09-19T10:59:21;18.60;99.90
55004;DHT22;40900;52.710;6.438;2023-09-19T11:01:51;18.70;99.90
55004;DHT22;40900;52.710;6.438;2023-09-19T11:04:27;18.70;99.90
55004;DHT22;40900;52.710;6.438;2023-09-19T11:07:01;18.90;99.90
55004;DHT22;40900;52.710;6.438;2023-09-19T11:09:51;18.90;99.90
55004;DHT22;40900;52.710;6.438;2023-09-19T11:15:03;18.80;99.90
55004;DHT22;40900;52.710;6.438;2023-09-19T11:17:38;18.70;99.90
55004;DHT22;40900;52.710;6.438;2023-09-19T11:30:50;19.20;99.90
55004;DHT22;40900;52.710;6.438;2023-09-19T11:36:16;19.40;99.90
55004;DHT22;40900;52.710;6.438;2023-09-19T11:43:52;19.10;99.90
55004;DHT22;40900;52.710;6.438;2023-09-19T11:46:20;19.10;99.90
55004;DHT22;40900;52.710;6.438;2023-09-19T11:48:50;18.90;99.90
55004;DHT22;40900;52.710;6.438;2023-09-19T11:51:20;18.90;99.90
55004;DHT22;40900;52.710;6.438;2023-09-19T11:53:53;18.80;99.90
55004;DHT22;40900;52.710;6.438;2023-09-19T11:56:21;18.70;99.90
55004;DHT22;40900;52.710;6.438;2023-09-19T11:58:50;18.70;99.90
55004;DHT22;40900;52.710;6.438;2023-09-19T12:03:56;18.50;99.90
55004;DHT22;40900;52.710;6.438;2023-09-19T12:06:24;18.60;99.90
55004;DHT22;40900;52.710;6.438;2023-09-19T12:08:51;18.60;99.90
55004;DHT22;40900;52.710;6.438;2023-09-19T12:11:21;18.70;99.90
55004;DHT22;40900;52.710;6.438;2023-09-19T12:13:47;18.70;99.90
55004;DHT22;40900;52.710;6.438;2023-09-19T12:16:19;18.70;99.90
55004;DHT22;40900;52.710;6.438;2023-09-19T12:18:48;18.70;99.90
55004;DHT22;40900;52.710;6.438;2023-09-19T12:26:44;18.50;99.90
55004;DHT22;40900;52.710;6.438;2023-09-19T12:29:23;18.40;99.90
55004;DHT22;40900;52.710;6.438;2023-09-19T12:31:57;18.30;99.90
55004;DHT22;40900;52.710;6.438;2023-09-19T12:34:27;18.40;99.90
55004;DHT22;40900;52.710;6.438;2023-09-19T12:37:07;18.60;99.90
55004;DHT22;40900;52.710;6.438;2023-09-19T12:39:43;18.80;99.90
55004;DHT22;40900;52.710;6.438;2023-09-19T12:42:15;18.90;99.90
55004;DHT22;40900;52.710;6.438;2023-09-19T12:44:46;18.90;99.90
55004;DHT22;40900;52.710;6.438;2023-09-19T12:47:18;18.90;99.90
55004;DHT22;40900;52.710;6.438;2023-09-19T12:52:40;18.90;99.90
55004;DHT22;40900;52.710;6.438;2023-09-19T12:55:06;18.90;99.90
55004;DHT22;40900;52.710;6.438;2023-09-19T12:57:33;18.80;99.90
55004;DHT22;40900;52.710;6.438;2023-09-19T13:00:04;18.80;99.90
55004;DHT22;40900;52.710;6.438;2023-09-19T13:02:37;18.90;99.90
55004;DHT22;40900;52.710;6.438;2023-09-19T13:05:03;18.70;99.90
55004;DHT22;40900;52.710;6.438;2023-09-19T13:07:42;18.70;99.90
55004;DHT22;40900;52.710;6.438;2023-09-19T13:10:15;18.60;99.90
55004;DHT22;40900;52.710;6.438;2023-09-19T13:12:43;18.60;99.90
55004;DHT22;40900;52.710;6.438;2023-09-19T13:15:14;18.50;99.90
55004;DHT22;40900;52.710;6.438;2023-09-19T13:17:49;18.60;99.90
55004;DHT22;40900;52.710;6.438;2023-09-19T13:20:41;18.60;99.90
55004;DHT22;40900;52.710;6.438;2023-09-19T13:23:27;18.50;99.90
55004;DHT22;40900;52.710;6.438;2023-09-19T13:25:52;18.60;99.90
55004;DHT22;40900;52.710;6.438;2023-09-19T13:28:18;18.50;99.90
55004;DHT22;40900;52.710;6.438;2023-09-19T13:30:44;18.40;99.90
55004;DHT22;40900;52.710;6.438;2023-09-19T13:33:12;18.40;99.90
55004;DHT22;40900;52.710;6.438;2023-09-19T13:35:39;18.40;99.90
55004;DHT22;40900;52.710;6.438;2023-09-19T13:38:06;18.40;99.90
55004;DHT22;40900;52.710;6.438;2023-09-19T13:40:35;18.40;99.90
55004;DHT22;40900;52.710;6.438;2023-09-19T13:43:01;18.50;99.90
55004;DHT22;40900;52.710;6.438;2023-09-19T13:45:27;18.50;99.90
55004;DHT22;40900;52.710;6.438;2023-09-19T13:47:56;18.50;99.90
55004;DHT22;40900;52.710;6.438;2023-09-19T13:50:22;18.50;99.90
55004;DHT22;40900;52.710;6.438;2023-09-19T13:52:51;18.50;99.90
55004;DHT22;40900;52.710;6.438;2023-09-19T13:55:17;18.60;99.90
55004;DHT22;40900;52.710;6.438;2023-09-19T13:57:49;18.70;99.90
55004;DHT22;40900;52.710;6.438;2023-09-19T14:00:22;18.70;99.90
55004;DHT22;40900;52.710;6.438;2023-09-19T14:02:48;18.70;99.90
55004;DHT22;40900;52.710;6.438;2023-09-19T14:05:15;18.70;99.90
55004;DHT22;40900;52.710;6.438;2023-09-19T14:07:45;18.80;99.90
55004;DHT22;40900;52.710;6.438;2023-09-19T14:10:12;18.70;99.90
55004;DHT22;40900;52.710;6.438;2023-09-19T14:12:38;18.80;99.90
55004;DHT22;40900;52.710;6.438;2023-09-19T14:15:07;18.80;99.90
55004;DHT22;40900;52.710;6.438;2023-09-19T14:17:33;18.80;99.90
55004;DHT22;40900;52.710;6.438;2023-09-19T14:19:59;18.80;99.90
55004;DHT22;40900;52.710;6.438;2023-09-19T14:22:25;18.80;99.90
55004;DHT22;40900;52.710;6.438;2023-09-19T14:24:51;18.80;99.90
55004;DHT22;40900;52.710;6.438;2023-09-19T14:27:18;18.70;99.90
55004;DHT22;40900;52.710;6.438;2023-09-19T14:29:44;18.60;99.90
55004;DHT22;40900;52.710;6.438;2023-09-19T14:32:10;18.60;99.90
55004;DHT22;40900;52.710;6.438;2023-09-19T14:34:36;18.60;99.90
55004;DHT22;40900;52.710;6.438;2023-09-19T14:37:08;18.50;99.90
55004;DHT22;40900;52.710;6.438;2023-09-19T14:39:33;18.50;99.90
55004;DHT22;40900;52.710;6.438;2023-09-19T14:41:59;18.50;99.90
55004;DHT22;40900;52.710;6.438;2023-09-19T14:44:25;18.40;99.90
55004;DHT22;40900;52.710;6.438;2023-09-19T14:46:51;18.50;99.90
55004;DHT22;40900;52.710;6.438;2023-09-19T14:49:17;18.40;99.90
55004;DHT22;40900;52.710;6.438;2023-09-19T14:51:43;18.40;99.90
55004;DHT22;40900;52.710;6.438;2023-09-19T14:54:14;18.40;99.90
55004;DHT22;40900;52.710;6.438;2023-09-19T14:56:42;18.40;99.90
55004;DHT22;40900;52.710;6.438;2023-09-19T14:59:08;18.40;99.90
55004;DHT22;40900;52.710;6.438;2023-09-19T15:01:36;18.40;99.90
55004;DHT22;40900;52.710;6.438;2023-09-19T15:04:03;18.40;99.90
55004;DHT22;40900;52.710;6.438;2023-09-19T15:06:29;18.40;99.90
55004;DHT22;40900;52.710;6.438;2023-09-19T15:08:56;18.40;99.90
55004;DHT22;40900;52.710;6.438;2023-09-19T15:11:22;18.50;99.90
55004;DHT22;40900;52.710;6.438;2023-09-19T15:13:51;18.50;99.90
55004;DHT22;40900;52.710;6.438;2023-09-19T15:16:17;18.50;99.90
55004;DHT22;40900;52.710;6.438;2023-09-19T15:18:45;18.50;99.90
55004;DHT22;40900;52.710;6.438;2023-09-19T15:21:13;18.50;99.90
55004;DHT22;40900;52.710;6.438;2023-09-19T15:23:41;18.40;99.90
55004;DHT22;40900;52.710;6.438;2023-09-19T15:26:10;18.40;99.90
55004;DHT22;40900;52.710;6.438;2023-09-19T15:28:37;18.40;99.90
55004;DHT22;40900;52.710;6.438;2023-09-19T15:31:12;18.40;99.90
55004;DHT22;40900;52.710;6.438;2023-09-19T15:33:39;18.40;99.90
55004;DHT22;40900;52.710;6.438;2023-09-19T15:36:06;18.40;99.90
55004;DHT22;40900;52.710;6.438;2023-09-19T15:39:00;18.30;99.90
55004;DHT22;40900;52.710;6.438;2023-09-19T15:41:32;18.40;99.90
55004;DHT22;40900;52.710;6.438;2023-09-19T15:44:00;18.30;99.90
55004;DHT22;40900;52.710;6.438;2023-09-19T15:46:30;18.30;99.90
55004;DHT22;40900;52.710;6.438;2023-09-19T15:48:57;18.30;99.90
55004;DHT22;40900;52.710;6.438;2023-09-19T15:51:23;18.30;99.90
55004;DHT22;40900;52.710;6.438;2023-09-19T15:53:50;18.40;99.90
55004;DHT22;40900;52.710;6.438;2023-09-19T15:56:17;18.30;99.90
55004;DHT22;40900;52.710;6.438;2023-09-19T15:58:47;18.30;99.90
55004;DHT22;40900;52.710;6.438;2023-09-19T16:01:13;18.30;99.90
55004;DHT22;40900;52.710;6.438;2023-09-19T16:03:43;18.30;99.90
55004;DHT22;40900;52.710;6.438;2023-09-19T16:06:10;18.20;99.90
55004;DHT22;40900;52.710;6.438;2023-09-19T16:08:40;18.20;99.90
55004;DHT22;40900;52.710;6.438;2023-09-19T16:11:07;18.10;99.90
55004;DHT22;40900;52.710;6.438;2023-09-19T16:13:33;18.10;99.90
55004;DHT22;40900;52.710;6.438;2023-09-19T16:15:59;18.10;99.90
55004;DHT22;40900;52.710;6.438;2023-09-19T16:18:25;18.10;99.90
55004;DHT22;40900;52.710;6.438;2023-09-19T16:20:50;18.00;99.90
55004;DHT22;40900;52.710;6.438;2023-09-19T16:23:16;18.00;99.90
55004;DHT22;40900;52.710;6.438;2023-09-19T16:25:42;18.00;99.90
55004;DHT22;40900;52.710;6.438;2023-09-19T16:28:08;17.90;99.90
55004;DHT22;40900;52.710;6.438;2023-09-19T16:30:34;17.80;99.90
55004;DHT22;40900;52.710;6.438;2023-09-19T16:33:00;17.80;99.90
55004;DHT22;40900;52.710;6.438;2023-09-19T16:35:26;17.80;99.90